Cabixi, Brazil
Current Conditions -  °F | °C
As of 10:00 AM on Sunday 25 Jan 2015 (Local Time) from SLTR Reporting Station
Overcast Overcast  
Wind Chill: 81°   Ceiling: 20000
Heat Index: 87°   Visibility: 6mi
Dew Point: 77°   Wind: 7mph
Humidity: 89%   Direction: 310°NW
Pressure: 29.88"   Gusts: NA
Location:  13.49°S, 60.54°W
Report Text: SLTR 251400Z 31006KT 9999 SCT006 FEW020CB OVC200 27/25 Q1012
Loading
Personal Weather Stations






























Interactive Weather Map New forecast layout! Learn more

10-Day Weather Forecast

Advertisements
Track Severe Weather on mobile